Weather at Altisurface de La Toussuire [CLOSED]

Public forecast

Using degrees Celsius for public forecast. Weather courtesy of forecast.io.

Closest aviation weather report (METAR) to Altisurface de La Toussuire

Closest report is Chambéry-Savoie Airport, 27.3 nm (50.6 km) NW. Retrieved 2020/09/19 15:30 UTC (3 minutes ago):

LFLB 191530Z AUTO 16004KT 9999 VCTS FEW046/// SCT120/// BKN150/// ///CB 25/20 Q1014 TEMPO VRB15G30KT 2000 TSRA

Closest aviation forecast (TAF) to Altisurface de La Toussuire

Closest forecast is Chambéry-Savoie Airport, 27.3 nm (50.6 km) NW. Retrieved 2020/09/19 12:21 UTC (3 hours ago):

TAF LFLB 191100Z 1912/2012 36005KT 9999 SCT040 SCT090 PROB30 TEMPO 1914/1921 VRB15G30KT 2000 TSRA SCT030 BKN060CB FM192100 VRB05KT 9999 BKN030 BKN090 PROB30 TEMPO 1921/2012 4000 SHRA BKN020 BKN040TCU